sensor_id;sensor_type;location;lat;lon;timestamp;pressure;altitude;pressure_sealevel;temperature;humidity
7662;BME280;30314;48.184;11.510;2023-02-26T00:00:29;95093.56;;;-1.45;100.00
7662;BME280;30314;48.184;11.510;2023-02-26T00:02:55;95068.69;;;-1.46;100.00
7662;BME280;30314;48.184;11.510;2023-02-26T00:05:22;95089.50;;;-1.29;100.00
7662;BME280;30314;48.184;11.510;2023-02-26T00:07:48;95087.34;;;-1.20;100.00
7662;BME280;30314;48.184;11.510;2023-02-26T00:10:15;95071.72;;;-1.37;100.00
7662;BME280;30314;48.184;11.510;2023-02-26T00:12:42;95089.50;;;-1.29;100.00
7662;BME280;30314;48.184;11.510;2023-02-26T00:15:11;95098.97;;;-1.35;100.00
7662;BME280;30314;48.184;11.510;2023-02-26T00:18:06;95096.81;;;-1.26;100.00
7662;BME280;30314;48.184;11.510;2023-02-26T00:20:35;95103.91;;;-1.21;100.00
7662;BME280;30314;48.184;11.510;2023-02-26T00:23:02;95090.72;;;-1.32;100.00
7662;BME280;30314;48.184;11.510;2023-02-26T00:25:28;95100.66;;;-1.40;100.00
7662;BME280;30314;48.184;11.510;2023-02-26T00:27:55;95107.63;;;-1.29;100.00
7662;BME280;30314;48.184;11.510;2023-02-26T00:30:22;95092.44;;;-1.49;100.00
7662;BME280;30314;48.184;11.510;2023-02-26T00:32:49;95099.31;;;-1.43;100.00
7662;BME280;30314;48.184;11.510;2023-02-26T00:35:16;95090.84;;;-1.38;100.00
7662;BME280;30314;48.184;11.510;2023-02-26T00:37:54;95108.41;;;-1.29;100.00
7662;BME280;30314;48.184;11.510;2023-02-26T00:40:42;95119.31;;;-1.26;100.00
7662;BME280;30314;48.184;11.510;2023-02-26T00:43:19;95108.31;;;-1.34;100.00
7662;BME280;30314;48.184;11.510;2023-02-26T00:46:21;95114.94;;;-1.38;100.00
7662;BME280;30314;48.184;11.510;2023-02-26T00:51:48;95122.38;;;-1.30;100.00
7662;BME280;30314;48.184;11.510;2023-02-26T00:54:22;95114.06;;;-1.44;100.00
7662;BME280;30314;48.184;11.510;2023-02-26T00:56:51;95102.91;;;-1.56;100.00
7662;BME280;30314;48.184;11.510;2023-02-26T00:59:19;95121.94;;;-1.38;100.00
7662;BME280;30314;48.184;11.510;2023-02-26T01:01:46;95114.84;;;-1.43;100.00
7662;BME280;30314;48.184;11.510;2023-02-26T01:04:14;95129.72;;;-1.38;100.00
7662;BME280;30314;48.184;11.510;2023-02-26T01:06:47;95124.06;;;-1.35;100.00
7662;BME280;30314;48.184;11.510;2023-02-26T01:09:30;95130.16;;;-1.53;100.00
7662;BME280;30314;48.184;11.510;2023-02-26T01:12:00;95122.16;;;-1.64;100.00
7662;BME280;30314;48.184;11.510;2023-02-26T01:14:28;95129.16;;;-1.52;100.00
7662;BME280;30314;48.184;11.510;2023-02-26T01:17:05;95129.50;;;-1.49;100.00
7662;BME280;30314;48.184;11.510;2023-02-26T01:22:32;95127.59;;;-1.65;100.00
7662;BME280;30314;48.184;11.510;2023-02-26T01:25:09;95103.16;;;-1.69;100.00
7662;BME280;30314;48.184;11.510;2023-02-26T01:27:37;95114.97;;;-1.74;100.00
7662;BME280;30314;48.184;11.510;2023-02-26T01:30:05;95102.25;;;-1.87;100.00
7662;BME280;30314;48.184;11.510;2023-02-26T01:32:43;95077.16;;;-2.10;100.00
7662;BME280;30314;48.184;11.510;2023-02-26T01:35:31;95131.53;;;-1.75;100.00
7662;BME280;30314;48.184;11.510;2023-02-26T01:38:08;95138.28;;;-1.74;100.00
7662;BME280;30314;48.184;11.510;2023-02-26T01:49:00;95134.44;;;-1.95;100.00
7662;BME280;30314;48.184;11.510;2023-02-26T01:51:51;95144.38;;;-1.80;100.00
7662;BME280;30314;48.184;11.510;2023-02-26T01:54:23;95148.28;;;-1.77;100.00
7662;BME280;30314;48.184;11.510;2023-02-26T01:57:02;95146.81;;;-1.85;100.00
7662;BME280;30314;48.184;11.510;2023-02-26T01:59:34;95139.31;;;-1.87;100.00
7662;BME280;30314;48.184;11.510;2023-02-26T02:02:05;95130.84;;;-1.94;100.00
7662;BME280;30314;48.184;11.510;2023-02-26T02:04:32;95152.34;;;-1.81;100.00
7662;BME280;30314;48.184;11.510;2023-02-26T02:07:00;95137.13;;;-2.02;100.00
7662;BME280;30314;48.184;11.510;2023-02-26T02:09:27;95098.44;;;-2.20;100.00
7662;BME280;30314;48.184;11.510;2023-02-26T02:17:37;95140.19;;;-1.93;100.00
7662;BME280;30314;48.184;11.510;2023-02-26T02:20:24;95151.91;;;-1.78;100.00
7662;BME280;30314;48.184;11.510;2023-02-26T02:23:13;95157.88;;;-1.78;100.00
7662;BME280;30314;48.184;11.510;2023-02-26T02:31:56;95157.53;;;-1.81;100.00
7662;BME280;30314;48.184;11.510;2023-02-26T02:35:03;95165.50;;;-1.83;100.00
7662;BME280;30314;48.184;11.510;2023-02-26T02:37:49;95159.78;;;-1.85;100.00
7662;BME280;30314;48.184;11.510;2023-02-26T02:40:23;95171.84;;;-1.79;100.00
7662;BME280;30314;48.184;11.510;2023-02-26T02:42:56;95147.84;;;-1.86;100.00
7662;BME280;30314;48.184;11.510;2023-02-26T02:45:31;95176.00;;;-1.78;100.00
7662;BME280;30314;48.184;11.510;2023-02-26T02:48:13;95167.44;;;-1.78;100.00
7662;BME280;30314;48.184;11.510;2023-02-26T02:50:49;95167.97;;;-1.88;100.00
7662;BME280;30314;48.184;11.510;2023-02-26T02:53:21;95180.38;;;-1.78;100.00
7662;BME280;30314;48.184;11.510;2023-02-26T02:55:56;95171.69;;;-1.96;100.00
7662;BME280;30314;48.184;11.510;2023-02-26T02:58:29;95180.59;;;-1.92;100.00
7662;BME280;30314;48.184;11.510;2023-02-26T03:01:00;95165.16;;;-1.99;100.00
7662;BME280;30314;48.184;11.510;2023-02-26T03:03:42;95177.97;;;-2.04;100.00
7662;BME280;30314;48.184;11.510;2023-02-26T03:06:10;95175.41;;;-2.04;100.00
7662;BME280;30314;48.184;11.510;2023-02-26T03:08:39;95181.47;;;-1.98;100.00
7662;BME280;30314;48.184;11.510;2023-02-26T03:11:07;95201.53;;;-1.93;100.00
7662;BME280;30314;48.184;11.510;2023-02-26T03:13:36;95193.72;;;-2.05;100.00
7662;BME280;30314;48.184;11.510;2023-02-26T03:16:26;95200.91;;;-2.07;100.00
7662;BME280;30314;48.184;11.510;2023-02-26T03:19:14;95195.38;;;-2.11;100.00
7662;BME280;30314;48.184;11.510;2023-02-26T03:22:34;95201.28;;;-2.04;100.00
7662;BME280;30314;48.184;11.510;2023-02-26T03:25:16;95217.94;;;-2.00;100.00
7662;BME280;30314;48.184;11.510;2023-02-26T03:28:10;95215.56;;;-2.01;100.00
7662;BME280;30314;48.184;11.510;2023-02-26T03:30:55;95221.31;;;-1.99;100.00
7662;BME280;30314;48.184;11.510;2023-02-26T03:33:47;95208.88;;;-2.09;100.00
7662;BME280;30314;48.184;11.510;2023-02-26T03:36:37;95228.03;;;-2.10;100.00
7662;BME280;30314;48.184;11.510;2023-02-26T03:39:24;95217.09;;;-2.12;100.00
7662;BME280;30314;48.184;11.510;2023-02-26T03:42:00;95233.53;;;-2.06;100.00
7662;BME280;30314;48.184;11.510;2023-02-26T03:44:38;95230.00;;;-2.24;100.00
7662;BME280;30314;48.184;11.510;2023-02-26T03:47:11;95234.28;;;-2.18;100.00
7662;BME280;30314;48.184;11.510;2023-02-26T03:49:52;95238.81;;;-2.13;100.00
7662;BME280;30314;48.184;11.510;2023-02-26T03:52:24;95239.06;;;-2.15;100.00
7662;BME280;30314;48.184;11.510;2023-02-26T03:55:23;95238.31;;;-2.34;100.00
7662;BME280;30314;48.184;11.510;2023-02-26T03:57:51;95222.50;;;-2.44;100.00
7662;BME280;30314;48.184;11.510;2023-02-26T04:00:26;95246.63;;;-2.32;100.00
7662;BME280;30314;48.184;11.510;2023-02-26T04:03:02;95229.69;;;-2.46;100.00
7662;BME280;30314;48.184;11.510;2023-02-26T04:05:39;95255.47;;;-2.39;100.00
7662;BME280;30314;48.184;11.510;2023-02-26T04:08:07;95238.03;;;-2.63;100.00
7662;BME280;30314;48.184;11.510;2023-02-26T04:10:41;95246.31;;;-2.54;100.00
7662;BME280;30314;48.184;11.510;2023-02-26T04:13:08;95259.72;;;-2.45;100.00
7662;BME280;30314;48.184;11.510;2023-02-26T04:15:35;95250.81;;;-2.49;100.00
7662;BME280;30314;48.184;11.510;2023-02-26T04:18:02;95258.06;;;-2.39;100.00
7662;BME280;30314;48.184;11.510;2023-02-26T04:20:29;95235.66;;;-2.46;100.00
7662;BME280;30314;48.184;11.510;2023-02-26T04:22:56;95244.97;;;-2.45;100.00
7662;BME280;30314;48.184;11.510;2023-02-26T04:25:22;95235.72;;;-2.52;100.00
7662;BME280;30314;48.184;11.510;2023-02-26T04:27:51;95237.25;;;-2.63;100.00
7662;BME280;30314;48.184;11.510;2023-02-26T04:30:18;95269.19;;;-2.39;100.00
7662;BME280;30314;48.184;11.510;2023-02-26T04:32:45;95249.75;;;-2.60;100.00
7662;BME280;30314;48.184;11.510;2023-02-26T04:35:14;95248.09;;;-2.54;100.00
7662;BME280;30314;48.184;11.510;2023-02-26T04:37:41;95260.31;;;-2.62;100.00
7662;BME280;30314;48.184;11.510;2023-02-26T04:40:08;95281.44;;;-2.46;100.00
7662;BME280;30314;48.184;11.510;2023-02-26T04:42:34;95257.94;;;-2.63;100.00
7662;BME280;30314;48.184;11.510;2023-02-26T04:45:01;95247.59;;;-2.63;100.00
7662;BME280;30314;48.184;11.510;2023-02-26T04:47:28;95271.06;;;-2.65;100.00
7662;BME280;30314;48.184;11.510;2023-02-26T04:49:55;95266.84;;;-2.59;100.00
7662;BME280;30314;48.184;11.510;2023-02-26T04:52:21;95262.81;;;-2.74;100.00
7662;BME280;30314;48.184;11.510;2023-02-26T04:54:48;95295.50;;;-2.61;100.00
7662;BME280;30314;48.184;11.510;2023-02-26T04:57:15;95268.78;;;-2.92;100.00
7662;BME280;30314;48.184;11.510;2023-02-26T04:59:41;95279.28;;;-2.68;100.00
7662;BME280;30314;48.184;11.510;2023-02-26T05:02:08;95269.78;;;-2.93;100.00
7662;BME280;30314;48.184;11.510;2023-02-26T05:04:38;95287.44;;;-2.90;100.00
7662;BME280;30314;48.184;11.510;2023-02-26T05:07:06;95296.34;;;-2.86;100.00
7662;BME280;30314;48.184;11.510;2023-02-26T05:09:32;95272.66;;;-3.01;100.00
7662;BME280;30314;48.184;11.510;2023-02-26T05:11:59;95278.22;;;-3.04;100.00
7662;BME280;30314;48.184;11.510;2023-02-26T05:14:26;95292.44;;;-3.14;100.00
7662;BME280;30314;48.184;11.510;2023-02-26T05:16:52;95289.88;;;-3.14;100.00
7662;BME280;30314;48.184;11.510;2023-02-26T05:19:19;95286.72;;;-3.22;100.00
7662;BME280;30314;48.184;11.510;2023-02-26T05:21:47;95279.22;;;-3.24;100.00
7662;BME280;30314;48.184;11.510;2023-02-26T05:24:15;95290.88;;;-3.15;100.00
7662;BME280;30314;48.184;11.510;2023-02-26T05:26:41;95288.16;;;-3.27;100.00
7662;BME280;30314;48.184;11.510;2023-02-26T05:29:08;95288.03;;;-3.32;100.00
7662;BME280;30314;48.184;11.510;2023-02-26T05:31:34;95282.22;;;-3.52;100.00
7662;BME280;30314;48.184;11.510;2023-02-26T05:34:01;95301.03;;;-3.20;100.00
7662;BME280;30314;48.184;11.510;2023-02-26T05:36:27;95290.72;;;-3.45;100.00
7662;BME280;30314;48.184;11.510;2023-02-26T05:38:54;95285.59;;;-3.52;100.00
7662;BME280;30314;48.184;11.510;2023-02-26T05:41:20;95318.69;;;-3.42;100.00
7662;BME280;30314;48.184;11.510;2023-02-26T05:43:47;95306.66;;;-3.55;100.00
7662;BME280;30314;48.184;11.510;2023-02-26T05:46:13;95289.69;;;-3.70;100.00
7662;BME280;30314;48.184;11.510;2023-02-26T05:48:40;95313.63;;;-3.56;100.00
7662;BME280;30314;48.184;11.510;2023-02-26T05:51:08;95328.88;;;-3.47;100.00
7662;BME280;30314;48.184;11.510;2023-02-26T05:53:35;95330.59;;;-3.66;100.00
7662;BME280;30314;48.184;11.510;2023-02-26T05:56:02;95337.47;;;-3.60;100.00
7662;BME280;30314;48.184;11.510;2023-02-26T05:58:28;95331.66;;;-3.81;100.00
7662;BME280;30314;48.184;11.510;2023-02-26T06:00:57;95343.34;;;-3.78;100.00
7662;BME280;30314;48.184;11.510;2023-02-26T06:03:24;95336.00;;;-3.81;100.00
7662;BME280;30314;48.184;11.510;2023-02-26T06:05:50;95340.28;;;-3.69;100.00
7662;BME280;30314;48.184;11.510;2023-02-26T06:08:17;95317.91;;;-3.75;100.00
7662;BME280;30314;48.184;11.510;2023-02-26T06:10:43;95306.31;;;-3.98;100.00
7662;BME280;30314;48.184;11.510;2023-02-26T06:13:10;95337.97;;;-3.77;100.00
7662;BME280;30314;48.184;11.510;2023-02-26T06:15:36;95320.81;;;-3.97;100.00
7662;BME280;30314;48.184;11.510;2023-02-26T06:18:03;95333.97;;;-4.05;100.00
7662;BME280;30314;48.184;11.510;2023-02-26T06:20:29;95326.44;;;-4.13;100.00
7662;BME280;30314;48.184;11.510;2023-02-26T06:22:56;95345.63;;;-4.02;100.00
7662;BME280;30314;48.184;11.510;2023-02-26T06:25:22;95331.97;;;-4.03;100.00
7662;BME280;30314;48.184;11.510;2023-02-26T06:27:48;95348.22;;;-4.02;100.00
7662;BME280;30314;48.184;11.510;2023-02-26T06:30:15;95373.81;;;-4.01;100.00
7662;BME280;30314;48.184;11.510;2023-02-26T06:32:43;95389.31;;;-4.07;100.00
7662;BME280;30314;48.184;11.510;2023-02-26T06:35:10;95376.41;;;-4.01;100.00
7662;BME280;30314;48.184;11.510;2023-02-26T06:37:36;95385.94;;;-4.08;100.00
7662;BME280;30314;48.184;11.510;2023-02-26T06:40:05;95398.16;;;-3.90;100.00
7662;BME280;30314;48.184;11.510;2023-02-26T06:42:31;95407.44;;;-3.75;100.00
7662;BME280;30314;48.184;11.510;2023-02-26T06:44:58;95399.00;;;-3.96;100.00
7662;BME280;30314;48.184;11.510;2023-02-26T06:47:25;95421.84;;;-4.00;100.00
7662;BME280;30314;48.184;11.510;2023-02-26T06:49:51;95390.13;;;-4.07;100.00
7662;BME280;30314;48.184;11.510;2023-02-26T06:52:17;95389.13;;;-4.06;100.00
7662;BME280;30314;48.184;11.510;2023-02-26T06:54:44;95399.03;;;-4.03;100.00
7662;BME280;30314;48.184;11.510;2023-02-26T06:57:10;95395.28;;;-4.07;100.00
7662;BME280;30314;48.184;11.510;2023-02-26T06:59:37;95426.44;;;-4.08;100.00
7662;BME280;30314;48.184;11.510;2023-02-26T07:02:04;95375.34;;;-4.38;100.00
7662;BME280;30314;48.184;11.510;2023-02-26T07:04:30;95441.47;;;-3.99;100.00
7662;BME280;30314;48.184;11.510;2023-02-26T07:06:57;95433.66;;;-3.78;100.00
7662;BME280;30314;48.184;11.510;2023-02-26T07:09:23;95437.50;;;-3.94;100.00
7662;BME280;30314;48.184;11.510;2023-02-26T07:11:50;95449.53;;;-3.75;100.00
7662;BME280;30314;48.184;11.510;2023-02-26T07:14:16;95451.94;;;-3.80;100.00
7662;BME280;30314;48.184;11.510;2023-02-26T07:16:43;95468.00;;;-3.71;100.00
7662;BME280;30314;48.184;11.510;2023-02-26T07:19:09;95414.13;;;-4.13;100.00
7662;BME280;30314;48.184;11.510;2023-02-26T07:21:35;95447.72;;;-3.67;100.00
7662;BME280;30314;48.184;11.510;2023-02-26T07:24:02;95448.34;;;-3.72;100.00
7662;BME280;30314;48.184;11.510;2023-02-26T07:26:29;95461.59;;;-3.69;100.00
7662;BME280;30314;48.184;11.510;2023-02-26T07:28:55;95472.63;;;-3.41;100.00
7662;BME280;30314;48.184;11.510;2023-02-26T07:31:22;95473.41;;;-3.41;100.00
7662;BME280;30314;48.184;11.510;2023-02-26T07:33:48;95470.19;;;-3.36;100.00
7662;BME280;30314;48.184;11.510;2023-02-26T07:36:16;95490.03;;;-3.30;100.00
7662;BME280;30314;48.184;11.510;2023-02-26T07:38:42;95479.97;;;-3.45;100.00
7662;BME280;30314;48.184;11.510;2023-02-26T07:41:09;95454.59;;;-3.55;100.00
7662;BME280;30314;48.184;11.510;2023-02-26T07:43:35;95478.91;;;-3.30;100.00
7662;BME280;30314;48.184;11.510;2023-02-26T07:46:02;95469.19;;;-3.28;100.00
7662;BME280;30314;48.184;11.510;2023-02-26T07:48:29;95485.19;;;-3.13;100.00
7662;BME280;30314;48.184;11.510;2023-02-26T07:50:56;95454.28;;;-3.26;100.00
7662;BME280;30314;48.184;11.510;2023-02-26T07:53:22;95470.03;;;-3.09;100.00
7662;BME280;30314;48.184;11.510;2023-02-26T07:55:49;95479.53;;;-3.28;100.00
7662;BME280;30314;48.184;11.510;2023-02-26T07:58:16;95479.34;;;-3.33;100.00
7662;BME280;30314;48.184;11.510;2023-02-26T08:00:42;95472.09;;;-3.18;100.00
7662;BME280;30314;48.184;11.510;2023-02-26T08:03:09;95483.34;;;-2.73;100.00
7662;BME280;30314;48.184;11.510;2023-02-26T08:05:36;95462.59;;;-2.92;100.00
7662;BME280;30314;48.184;11.510;2023-02-26T08:08:02;95466.66;;;-2.77;100.00
7662;BME280;30314;48.184;11.510;2023-02-26T08:10:29;95489.88;;;-2.71;100.00
7662;BME280;30314;48.184;11.510;2023-02-26T08:12:56;95466.31;;;-2.56;100.00
7662;BME280;30314;48.184;11.510;2023-02-26T08:15:22;95485.97;;;-2.54;100.00
7662;BME280;30314;48.184;11.510;2023-02-26T08:17:51;95469.47;;;-2.79;100.00
7662;BME280;30314;48.184;11.510;2023-02-26T08:20:18;95491.31;;;-2.75;100.00
7662;BME280;30314;48.184;11.510;2023-02-26T08:22:45;95456.22;;;-2.89;100.00
7662;BME280;30314;48.184;11.510;2023-02-26T08:25:12;95503.03;;;-2.47;100.00
7662;BME280;30314;48.184;11.510;2023-02-26T08:27:38;95492.22;;;-2.62;100.00
7662;BME280;30314;48.184;11.510;2023-02-26T08:30:06;95503.34;;;-2.62;100.00
7662;BME280;30314;48.184;11.510;2023-02-26T08:32:33;95528.16;;;-2.54;100.00
7662;BME280;30314;48.184;11.510;2023-02-26T08:34:59;95521.75;;;-2.77;100.00
7662;BME280;30314;48.184;11.510;2023-02-26T08:37:26;95537.00;;;-2.68;100.00
7662;BME280;30314;48.184;11.510;2023-02-26T08:39:52;95523.78;;;-2.86;100.00
7662;BME280;30314;48.184;11.510;2023-02-26T08:42:19;95542.28;;;-2.57;100.00
7662;BME280;30314;48.184;11.510;2023-02-26T08:44:46;95537.00;;;-2.68;100.00
7662;BME280;30314;48.184;11.510;2023-02-26T08:47:13;95530.69;;;-2.79;100.00
7662;BME280;30314;48.184;11.510;2023-02-26T08:49:49;95524.84;;;-2.93;100.00
7662;BME280;30314;48.184;11.510;2023-02-26T08:52:16;95553.16;;;-2.73;100.00
7662;BME280;30314;48.184;11.510;2023-02-26T08:54:42;95543.72;;;-2.61;100.00
7662;BME280;30314;48.184;11.510;2023-02-26T08:57:09;95543.91;;;-2.62;100.00
7662;BME280;30314;48.184;11.510;2023-02-26T08:59:36;95526.03;;;-2.96;100.00
7662;BME280;30314;48.184;11.510;2023-02-26T09:02:02;95549.56;;;-2.72;100.00
7662;BME280;30314;48.184;11.510;2023-02-26T09:04:29;95544.81;;;-2.82;100.00
7662;BME280;30314;48.184;11.510;2023-02-26T09:06:56;95569.97;;;-2.64;100.00
7662;BME280;30314;48.184;11.510;2023-02-26T09:09:23;95556.88;;;-2.69;100.00
7662;BME280;30314;48.184;11.510;2023-02-26T09:11:49;95559.47;;;-2.69;100.00
7662;BME280;30314;48.184;11.510;2023-02-26T09:14:16;95550.38;;;-2.78;100.00
7662;BME280;30314;48.184;11.510;2023-02-26T09:16:42;95595.41;;;-2.54;100.00
7662;BME280;30314;48.184;11.510;2023-02-26T09:19:09;95579.56;;;-2.71;100.00
7662;BME280;30314;48.184;11.510;2023-02-26T09:21:36;95581.31;;;-2.65;100.00
7662;BME280;30314;48.184;11.510;2023-02-26T09:24:02;95544.03;;;-2.82;100.00
7662;BME280;30314;48.184;11.510;2023-02-26T09:26:29;95593.78;;;-2.48;100.00
7662;BME280;30314;48.184;11.510;2023-02-26T09:28:56;95555.50;;;-2.72;100.00
7662;BME280;30314;48.184;11.510;2023-02-26T09:31:23;95540.28;;;-2.54;100.00
7662;BME280;30314;48.184;11.510;2023-02-26T09:33:49;95590.97;;;-2.47;100.00
7662;BME280;30314;48.184;11.510;2023-02-26T09:36:16;95550.72;;;-2.68;100.00
7662;BME280;30314;48.184;11.510;2023-02-26T09:38:42;95587.41;;;-2.52;100.00
7662;BME280;30314;48.184;11.510;2023-02-26T09:41:25;95617.63;;;-2.46;100.00
7662;BME280;30314;48.184;11.510;2023-02-26T09:44:08;95595.44;;;-2.61;100.00
7662;BME280;30314;48.184;11.510;2023-02-26T09:46:41;95618.25;;;-2.51;100.00
7662;BME280;30314;48.184;11.510;2023-02-26T09:49:21;95623.22;;;-2.56;100.00
7662;BME280;30314;48.184;11.510;2023-02-26T09:51:53;95624.72;;;-2.35;100.00
7662;BME280;30314;48.184;11.510;2023-02-26T09:54:23;95580.50;;;-2.59;100.00
7662;BME280;30314;48.184;11.510;2023-02-26T09:56:52;95612.06;;;-2.50;100.00
7662;BME280;30314;48.184;11.510;2023-02-26T09:59:19;95577.16;;;-2.66;100.00
7662;BME280;30314;48.184;11.510;2023-02-26T10:01:55;95619.06;;;-2.25;100.00
7662;BME280;30314;48.184;11.510;2023-02-26T10:07:25;95602.41;;;-2.36;100.00
7662;BME280;30314;48.184;11.510;2023-02-26T10:10:08;95629.97;;;-2.16;100.00
7662;BME280;30314;48.184;11.510;2023-02-26T10:12:39;95608.72;;;-2.25;100.00
7662;BME280;30314;48.184;11.510;2023-02-26T10:15:23;95625.31;;;-2.07;100.00
7662;BME280;30314;48.184;11.510;2023-02-26T10:18:01;95604.22;;;-2.11;100.00
7662;BME280;30314;48.184;11.510;2023-02-26T10:20:51;95617.53;;;-2.07;100.00
7662;BME280;30314;48.184;11.510;2023-02-26T10:26:03;95609.91;;;-1.95;100.00
7662;BME280;30314;48.184;11.510;2023-02-26T10:34:06;95607.72;;;-1.99;100.00
7662;BME280;30314;48.184;11.510;2023-02-26T10:36:46;95630.91;;;-1.85;100.00
7662;BME280;30314;48.184;11.510;2023-02-26T10:41:47;95585.25;;;-1.79;100.00
7662;BME280;30314;48.184;11.510;2023-02-26T10:44:26;95619.03;;;-1.67;100.00
7662;BME280;30314;48.184;11.510;2023-02-26T10:49:38;95620.03;;;-1.50;100.00
7662;BME280;30314;48.184;11.510;2023-02-26T10:52:25;95586.22;;;-1.55;100.00
7662;BME280;30314;48.184;11.510;2023-02-26T10:55:21;95603.47;;;-1.30;100.00
7662;BME280;30314;48.184;11.510;2023-02-26T10:58:11;95607.41;;;-1.39;100.00
7662;BME280;30314;48.184;11.510;2023-02-26T11:00:42;95607.72;;;-1.36;100.00
7662;BME280;30314;48.184;11.510;2023-02-26T11:03:17;95573.16;;;-1.41;100.00
7662;BME280;30314;48.184;11.510;2023-02-26T11:05:45;95580.44;;;-1.57;100.00
7662;BME280;30314;48.184;11.510;2023-02-26T11:08:19;95598.97;;;-1.35;100.00
7662;BME280;30314;48.184;11.510;2023-02-26T11:10:57;95601.34;;;-1.33;100.00
7662;BME280;30314;48.184;11.510;2023-02-26T11:13:28;95598.88;;;-1.09;100.00
7662;BME280;30314;48.184;11.510;2023-02-26T11:15:59;95589.25;;;-1.21;100.00
7662;BME280;30314;48.184;11.510;2023-02-26T11:18:40;95588.38;;;-1.15;100.00
7662;BME280;30314;48.184;11.510;2023-02-26T11:21:12;95562.69;;;-1.16;100.00
7662;BME280;30314;48.184;11.510;2023-02-26T11:23:42;95595.59;;;-0.86;100.00
7662;BME280;30314;48.184;11.510;2023-02-26T11:26:16;95600.09;;;-0.93;100.00
7662;BME280;30314;48.184;11.510;2023-02-26T11:28:49;95591.38;;;-0.99;100.00
7662;BME280;30314;48.184;11.510;2023-02-26T11:31:21;95568.84;;;-0.98;100.00
7662;BME280;30314;48.184;11.510;2023-02-26T11:33:50;95602.31;;;-0.97;100.00
7662;BME280;30314;48.184;11.510;2023-02-26T11:36:23;95592.56;;;-1.13;100.00
7662;BME280;30314;48.184;11.510;2023-02-26T11:38:55;95606.38;;;-1.01;100.00
7662;BME280;30314;48.184;11.510;2023-02-26T11:41:23;95625.22;;;-0.94;100.00
7662;BME280;30314;48.184;11.510;2023-02-26T11:44:18;95623.28;;;-0.98;100.00
7662;BME280;30314;48.184;11.510;2023-02-26T11:46:51;95623.06;;;-0.97;100.00
7662;BME280;30314;48.184;11.510;2023-02-26T11:49:24;95589.69;;;-1.24;100.00
7662;BME280;30314;48.184;11.510;2023-02-26T11:54:38;95612.28;;;-1.12;100.00
7662;BME280;30314;48.184;11.510;2023-02-26T11:57:06;95633.56;;;-0.73;100.00
7662;BME280;30314;48.184;11.510;2023-02-26T11:59:39;95627.16;;;-0.89;100.00
7662;BME280;30314;48.184;11.510;2023-02-26T12:02:11;95643.88;;;-1.04;100.00
7662;BME280;30314;48.184;11.510;2023-02-26T12:04:42;95641.78;;;-0.95;100.00
7662;BME280;30314;48.184;11.510;2023-02-26T12:07:13;95643.66;;;-0.83;100.00
7662;BME280;30314;48.184;11.510;2023-02-26T12:09:40;95644.50;;;-0.90;100.00
7662;BME280;30314;48.184;11.510;2023-02-26T12:15:21;95637.66;;;-0.84;100.00
7662;BME280;30314;48.184;11.510;2023-02-26T12:18:20;95633.72;;;-0.87;100.00
7662;BME280;30314;48.184;11.510;2023-02-26T12:21:02;95635.72;;;-0.70;100.00
7662;BME280;30314;48.184;11.510;2023-02-26T12:26:29;95627.75;;;-0.56;100.00
7662;BME280;30314;48.184;11.510;2023-02-26T12:29:23;95629.06;;;-0.23;100.00
7662;BME280;30314;48.184;11.510;2023-02-26T12:34:57;95636.19;;;0.24;100.00
7662;BME280;30314;48.184;11.510;2023-02-26T12:40:40;95637.88;;;0.30;100.00
7662;BME280;30314;48.184;11.510;2023-02-26T12:43:10;95624.50;;;0.03;100.00
7662;BME280;30314;48.184;11.510;2023-02-26T12:45:53;95622.50;;;0.05;100.00
7662;BME280;30314;48.184;11.510;2023-02-26T12:59:54;95613.09;;;-0.08;100.00
7662;BME280;30314;48.184;11.510;2023-02-26T13:02:32;95596.75;;;0.15;100.00
7662;BME280;30314;48.184;11.510;2023-02-26T13:05:18;95602.31;;;0.31;95.44
7662;BME280;30314;48.184;11.510;2023-02-26T13:10:46;95621.81;;;0.21;100.00
7662;BME280;30314;48.184;11.510;2023-02-26T13:16:25;95608.41;;;-0.42;100.00
7662;BME280;30314;48.184;11.510;2023-02-26T13:22:38;95617.03;;;-0.60;100.00
7662;BME280;30314;48.184;11.510;2023-02-26T13:25:15;95630.22;;;-0.62;100.00
7662;BME280;30314;48.184;11.510;2023-02-26T13:27:44;95638.09;;;-0.68;100.00
7662;BME280;30314;48.184;11.510;2023-02-26T13:32:38;95624.50;;;-0.52;100.00
7662;BME280;30314;48.184;11.510;2023-02-26T13:35:35;95630.06;;;-0.36;100.00
7662;BME280;30314;48.184;11.510;2023-02-26T13:41:26;95628.88;;;-0.22;100.00
7662;BME280;30314;48.184;11.510;2023-02-26T13:49:49;95622.84;;;-0.46;100.00
7662;BME280;30314;48.184;11.510;2023-02-26T13:52:27;95641.13;;;-0.41;100.00
7662;BME280;30314;48.184;11.510;2023-02-26T13:54:55;95639.97;;;-0.45;100.00
7662;BME280;30314;48.184;11.510;2023-02-26T13:57:52;95638.16;;;-0.45;100.00
7662;BME280;30314;48.184;11.510;2023-02-26T14:00:33;95619.66;;;-0.48;100.00
7662;BME280;30314;48.184;11.510;2023-02-26T14:10:46;95635.88;;;-0.22;93.95
7662;BME280;30314;48.184;11.510;2023-02-26T14:13:21;95641.63;;;-0.20;92.42
7662;BME280;30314;48.184;11.510;2023-02-26T14:16:10;95635.19;;;-0.18;91.63
7662;BME280;30314;48.184;11.510;2023-02-26T14:24:01;95621.75;;;-0.26;93.15
7662;BME280;30314;48.184;11.510;2023-02-26T14:26:32;95623.59;;;-0.15;92.08
7662;BME280;30314;48.184;11.510;2023-02-26T14:29:12;95641.34;;;0.00;91.45
7662;BME280;30314;48.184;11.510;2023-02-26T14:31:52;95634.13;;;0.02;89.69
7662;BME280;30314;48.184;11.510;2023-02-26T14:34:24;95632.19;;;-0.03;86.73
7662;BME280;30314;48.184;11.510;2023-02-26T14:36:57;95631.63;;;0.07;89.07
7662;BME280;30314;48.184;11.510;2023-02-26T14:39:41;95642.16;;;0.24;88.46
7662;BME280;30314;48.184;11.510;2023-02-26T14:42:13;95644.06;;;0.29;89.95
7662;BME280;30314;48.184;11.510;2023-02-26T14:44:46;95637.16;;;0.23;87.80
7662;BME280;30314;48.184;11.510;2023-02-26T14:47:14;95624.28;;;0.04;85.63
7662;BME280;30314;48.184;11.510;2023-02-26T14:49:44;95653.09;;;0.15;83.26
7662;BME280;30314;48.184;11.510;2023-02-26T15:12:11;95680.63;;;0.04;76.14
7662;BME280;30314;48.184;11.510;2023-02-26T15:38:57;95709.81;;;-0.13;88.08
7662;BME280;30314;48.184;11.510;2023-02-26T15:41:25;95712.75;;;-0.09;90.20